createdAt,value
2019-03-18T00:02:25.507Z,99998.39
2019-03-18T00:04:56.965Z,100009.17
2019-03-18T00:07:27.487Z,100012.38
2019-03-18T00:09:58.031Z,100021.42
2019-03-18T00:12:28.547Z,100018.38
2019-03-18T00:15:01.609Z,100029.22
2019-03-18T00:17:31.213Z,100028.63
2019-03-18T00:20:05.174Z,100025.52
2019-03-18T00:22:35.587Z,100006.97
2019-03-18T00:25:10.305Z,100021.01
2019-03-18T00:27:40.629Z,100034.16
2019-03-18T00:30:15.580Z,100033.05
2019-03-18T00:32:46.111Z,100029.32
2019-03-18T00:35:17.774Z,100034.06
2019-03-18T00:37:48.281Z,100032.69
2019-03-18T00:40:20.824Z,100037.27
2019-03-18T00:42:51.181Z,100041.15
2019-03-18T00:45:22.648Z,100040.88
2019-03-18T00:47:54.091Z,100047.52
2019-03-18T00:50:25.544Z,100045.78
2019-03-18T00:52:56.989Z,100044.41
2019-03-18T00:55:27.538Z,100049.36
2019-03-18T00:57:58.967Z,100058.72
2019-03-18T01:00:29.234Z,100059.71
2019-03-18T01:02:59.726Z,100057.67
2019-03-18T01:05:30.270Z,100062.98
2019-03-18T01:08:00.782Z,100059.46
2019-03-18T01:10:31.046Z,100059.72
2019-03-18T01:13:02.457Z,100068.61
2019-03-18T01:15:32.997Z,100062.77
2019-03-18T01:18:03.321Z,100062.30
2019-03-18T01:20:34.985Z,100060.72
2019-03-18T01:23:06.409Z,100068.77
2019-03-18T01:25:36.686Z,100064.77
2019-03-18T01:28:08.398Z,100057.14
2019-03-18T01:30:38.944Z,100056.95
2019-03-18T01:33:09.459Z,100055.63
2019-03-18T01:35:40.922Z,100055.95
2019-03-18T01:38:11.439Z,100056.47
2019-03-18T01:40:41.699Z,100060.16
2019-03-18T01:43:18.960Z,100051.47
2019-03-18T01:45:49.489Z,100061.25
2019-03-18T01:48:20.008Z,100063.05
2019-03-18T01:50:50.563Z,100064.36
2019-03-18T01:53:21.086Z,100069.39
2019-03-18T01:55:52.550Z,100064.23
2019-03-18T01:58:23.044Z,100057.98
2019-03-18T02:00:54.516Z,100058.66
2019-03-18T02:03:25.968Z,100068.43
2019-03-18T02:05:56.500Z,100066.38
2019-03-18T02:08:27.012Z,100071.70
2019-03-18T02:11:03.393Z,100067.37
2019-03-18T02:13:33.907Z,100063.34
2019-03-18T02:16:04.451Z,100076.89
2019-03-18T02:18:34.966Z,100081.31
2019-03-18T02:21:05.517Z,100086.25
2019-03-18T02:23:36.026Z,100094.30
2019-03-18T02:26:06.580Z,100090.77
2019-03-18T02:28:37.077Z,100094.23
2019-03-18T02:31:08.553Z,100094.30
2019-03-18T02:33:39.064Z,100104.00
2019-03-18T02:36:09.618Z,100101.22
2019-03-18T02:38:42.278Z,100099.55
2019-03-18T02:41:12.827Z,100094.80
2019-03-18T02:43:43.350Z,100095.31
2019-03-18T02:46:13.874Z,100090.12
2019-03-18T02:48:44.393Z,100091.02
2019-03-18T02:51:14.943Z,100094.48
2019-03-18T02:53:46.379Z,100102.52
2019-03-18T02:56:18.152Z,100105.14
2019-03-18T02:58:48.665Z,100099.83
2019-03-18T03:01:19.209Z,100099.66
2019-03-18T03:03:50.638Z,100103.86
2019-03-18T03:06:22.115Z,100106.58
2019-03-18T03:08:53.540Z,100111.09
2019-03-18T03:11:25.016Z,100117.42
2019-03-18T03:13:55.532Z,100109.55
2019-03-18T03:16:27.726Z,100111.11
2019-03-18T03:18:59.658Z,100111.42
2019-03-18T03:21:30.207Z,100119.78
2019-03-18T03:24:00.722Z,100115.30
2019-03-18T03:26:31.270Z,100134.41
2019-03-18T03:29:01.779Z,100135.72
2019-03-18T03:31:32.343Z,100136.87
2019-03-18T03:34:02.834Z,100147.55
2019-03-18T03:36:34.321Z,100145.23
2019-03-18T03:39:07.078Z,100152.12
2019-03-18T03:41:37.530Z,100153.84
2019-03-18T03:44:07.863Z,100158.13
2019-03-18T03:46:43.761Z,100171.50
2019-03-18T03:49:10.311Z,100159.86
2019-03-18T03:51:40.580Z,100146.87
2019-03-18T03:54:11.071Z,100158.20
2019-03-18T03:56:41.338Z,100155.16
2019-03-18T03:59:11.845Z,100165.42
2019-03-18T04:01:42.369Z,100174.84
2019-03-18T04:04:13.804Z,100174.26
2019-03-18T04:06:45.271Z,100175.40
2019-03-18T04:09:15.783Z,100181.65
2019-03-18T04:11:46.325Z,100179.82
2019-03-18T04:14:17.766Z,100191.49
2019-03-18T04:17:00.770Z,100194.12
2019-03-18T04:19:20.359Z,100192.28
2019-03-18T04:21:51.161Z,100189.48
2019-03-18T04:24:21.723Z,100189.83
2019-03-18T04:26:52.267Z,100189.47
2019-03-18T04:29:23.707Z,100190.53
2019-03-18T04:31:55.183Z,100189.87
2019-03-18T04:34:26.608Z,100199.19
2019-03-18T04:36:57.165Z,100211.41
2019-03-18T04:39:28.596Z,100214.33
2019-03-18T04:41:59.146Z,100215.98
2019-03-18T04:44:30.039Z,100223.86
2019-03-18T04:47:00.508Z,100216.63
2019-03-18T04:49:31.019Z,100223.49
2019-03-18T04:52:01.572Z,100232.23
2019-03-18T04:54:32.086Z,100233.06
2019-03-18T04:57:02.617Z,100229.84
2019-03-18T04:59:34.055Z,100215.41
2019-03-18T05:02:04.609Z,100218.52
2019-03-18T05:04:37.265Z,100219.76
2019-03-18T05:07:07.810Z,100211.41
2019-03-18T05:09:38.327Z,100218.30
2019-03-18T05:12:08.877Z,100223.60
2019-03-18T05:14:40.306Z,100215.88
2019-03-18T05:17:10.872Z,100220.74
2019-03-18T05:19:42.295Z,100224.27
2019-03-18T05:22:12.841Z,100224.34
2019-03-18T05:24:43.365Z,100225.84
2019-03-18T05:27:13.899Z,100222.26
2019-03-18T05:29:46.165Z,100227.04
2019-03-18T05:32:16.491Z,100233.12
2019-03-18T05:34:55.854Z,100230.51
2019-03-18T05:37:28.290Z,100244.55
2019-03-18T05:39:59.738Z,100246.98
2019-03-18T05:42:32.531Z,100246.93
2019-03-18T05:45:06.899Z,100242.93
2019-03-18T05:47:39.995Z,100243.47
2019-03-18T05:50:11.497Z,100243.61
2019-03-18T05:52:41.923Z,100261.80
2019-03-18T05:55:12.461Z,100256.62
2019-03-18T05:57:43.889Z,100263.20
2019-03-18T06:00:14.886Z,100265.97
2019-03-18T06:02:47.386Z,100260.02
2019-03-18T06:05:17.951Z,100255.79
2019-03-18T06:07:48.480Z,100258.00
2019-03-18T06:10:18.993Z,100262.11
2019-03-18T06:12:49.548Z,100277.36
2019-03-18T06:15:20.074Z,100281.51
2019-03-18T06:17:52.848Z,100275.86
2019-03-18T06:20:23.908Z,100273.42
2019-03-18T06:22:54.417Z,100272.80
2019-03-18T06:25:24.959Z,100265.38
2019-03-18T06:27:55.474Z,100275.61
2019-03-18T06:30:26.021Z,100274.87
2019-03-18T06:32:57.453Z,100272.41
2019-03-18T06:35:28.907Z,100280.23
2019-03-18T06:38:01.293Z,100279.09
2019-03-18T06:40:31.846Z,100277.47
2019-03-18T06:43:02.339Z,100276.05
2019-03-18T06:45:33.810Z,100282.72
2019-03-18T06:48:05.488Z,100279.33
2019-03-18T06:50:36.082Z,100280.95
2019-03-18T06:53:07.512Z,100274.44
2019-03-18T06:55:37.773Z,100270.53
2019-03-18T06:58:08.283Z,100267.67
2019-03-18T07:00:38.808Z,100267.98
2019-03-18T07:03:09.333Z,100275.91
2019-03-18T07:05:40.793Z,100277.27
2019-03-18T07:08:12.251Z,100277.21
2019-03-18T07:10:42.779Z,100286.38
2019-03-18T07:13:13.301Z,100304.79
2019-03-18T07:15:43.837Z,100308.69
2019-03-18T07:18:18.458Z,100299.70
2019-03-18T07:20:46.540Z,100300.05
2019-03-18T07:23:21.867Z,100296.84
2019-03-18T07:25:56.361Z,100289.83
2019-03-18T07:28:28.465Z,100302.91
2019-03-18T07:30:59.001Z,100298.03
2019-03-18T07:33:29.535Z,100315.53
2019-03-18T07:36:00.974Z,100313.22
2019-03-18T07:38:32.428Z,100319.31
2019-03-18T07:41:03.894Z,100316.31
2019-03-18T07:43:34.440Z,100310.25
2019-03-18T07:46:04.958Z,100320.20
2019-03-18T07:48:35.478Z,100335.84
2019-03-18T07:51:05.993Z,100342.23
2019-03-18T07:53:36.534Z,100348.02
2019-03-18T07:56:07.124Z,100358.67
2019-03-18T07:58:37.612Z,100359.96
2019-03-18T08:01:08.121Z,100355.56
2019-03-18T08:03:38.653Z,100344.12
2019-03-18T08:06:09.213Z,100349.96
2019-03-18T08:08:41.103Z,100352.37
2019-03-18T08:11:11.808Z,100332.02
2019-03-18T08:13:42.389Z,100348.06
2019-03-18T08:16:12.869Z,100349.28
2019-03-18T08:18:43.702Z,100349.70
2019-03-18T08:21:15.457Z,100356.08
2019-03-18T08:23:47.287Z,100363.02
2019-03-18T08:26:17.767Z,100364.12
2019-03-18T08:28:48.680Z,100366.65
2019-03-18T08:31:19.174Z,100360.38
2019-03-18T08:33:49.629Z,100385.83
2019-03-18T08:36:20.781Z,100362.94
2019-03-18T08:38:51.426Z,100372.20
2019-03-18T08:41:21.950Z,100374.36
2019-03-18T08:43:53.522Z,100381.23
2019-03-18T08:46:26.416Z,100384.58
2019-03-18T08:48:56.947Z,100387.41
2019-03-18T08:51:27.671Z,100375.63
2019-03-18T08:53:58.155Z,100372.84
2019-03-18T08:56:31.135Z,100372.78
2019-03-18T08:59:01.668Z,100379.23
2019-03-18T09:01:33.125Z,100375.16
2019-03-18T09:04:03.684Z,100380.59
2019-03-18T09:06:35.103Z,100395.39
2019-03-18T09:09:07.263Z,100400.39
2019-03-18T09:11:37.697Z,100407.27
2019-03-18T09:14:10.705Z,100418.47
2019-03-18T09:16:43.669Z,100417.20
2019-03-18T09:19:14.198Z,100415.98
2019-03-18T09:21:44.710Z,100419.33
2019-03-18T09:24:17.693Z,100410.82
2019-03-18T09:27:01.593Z,100417.63
2019-03-18T09:29:21.241Z,100414.59
2019-03-18T09:31:51.827Z,100429.03
2019-03-18T09:34:22.296Z,100421.44
2019-03-18T09:36:52.824Z,100423.86
2019-03-18T09:39:23.350Z,100422.59
2019-03-18T09:41:53.880Z,100418.67
2019-03-18T09:44:24.418Z,100417.91
2019-03-18T09:46:54.970Z,100417.42
2019-03-18T09:49:25.481Z,100419.97
2019-03-18T09:51:56.018Z,100429.22
2019-03-18T09:54:26.524Z,100429.78
2019-03-18T09:56:57.077Z,100432.42
2019-03-18T09:59:27.584Z,100429.91
2019-03-18T10:02:01.500Z,100429.64
2019-03-18T10:04:32.025Z,100437.61
2019-03-18T10:07:03.503Z,100429.50
2019-03-18T10:09:34.318Z,100442.16
2019-03-18T10:12:04.855Z,100428.30
2019-03-18T10:14:36.304Z,100428.25
2019-03-18T10:17:09.901Z,100433.78
2019-03-18T10:19:38.901Z,100430.53
2019-03-18T10:22:09.416Z,100432.23
2019-03-18T10:24:39.950Z,100441.41
2019-03-18T10:27:10.490Z,100451.63
2019-03-18T10:29:41.026Z,100450.15
2019-03-18T10:32:11.548Z,100460.22
2019-03-18T10:34:44.806Z,100469.03
2019-03-18T10:37:16.276Z,100463.14
2019-03-18T10:39:48.057Z,100470.73
2019-03-18T10:42:18.574Z,100476.78
2019-03-18T10:44:50.031Z,100478.75
2019-03-18T10:47:20.547Z,100473.47
2019-03-18T10:49:51.102Z,100489.83
2019-03-18T10:52:21.617Z,100495.28
2019-03-18T10:54:52.146Z,100491.37
2019-03-18T10:57:23.589Z,100494.68
2019-03-18T10:59:55.060Z,100490.73
2019-03-18T11:02:25.572Z,100485.86
2019-03-18T11:04:56.108Z,100488.09
2019-03-18T11:07:26.631Z,100478.76
2019-03-18T11:09:57.175Z,100486.27
2019-03-18T11:12:27.685Z,100489.10
2019-03-18T11:14:58.239Z,100496.50
2019-03-18T11:17:29.664Z,100484.84
2019-03-18T11:20:00.262Z,100484.83
2019-03-18T11:22:31.652Z,100469.42
2019-03-18T11:25:04.158Z,100476.80
2019-03-18T11:27:35.779Z,100459.50
2019-03-18T11:30:14.723Z,100476.54
2019-03-18T11:32:45.136Z,100480.92
2019-03-18T11:35:15.664Z,100468.23
2019-03-18T11:37:47.117Z,100480.85
2019-03-18T11:40:21.429Z,100481.83
2019-03-18T11:42:51.862Z,100481.06
2019-03-18T11:45:23.315Z,100485.30
2019-03-18T11:47:53.859Z,100466.55
2019-03-18T11:50:24.384Z,100466.77
2019-03-18T11:52:54.659Z,100469.08
2019-03-18T11:55:27.397Z,100479.73
2019-03-18T11:57:57.807Z,100498.37
2019-03-18T12:00:29.563Z,100489.39
2019-03-18T12:03:01.016Z,100483.84
2019-03-18T12:05:33.722Z,100486.48
2019-03-18T12:08:04.235Z,100481.04
2019-03-18T12:10:34.758Z,100487.84
2019-03-18T12:13:06.228Z,100496.96
2019-03-18T12:15:36.901Z,100491.33
2019-03-18T12:18:08.628Z,100487.47
2019-03-18T12:20:39.027Z,100487.05
2019-03-18T12:23:09.570Z,100490.91
2019-03-18T12:25:41.012Z,100494.87
2019-03-18T12:28:11.679Z,100497.34
2019-03-18T12:30:42.071Z,100482.84
2019-03-18T12:33:12.620Z,100491.17
2019-03-18T12:35:43.139Z,100492.50
2019-03-18T12:38:13.661Z,100510.55
2019-03-18T12:40:44.197Z,100499.19
2019-03-18T12:43:15.182Z,100502.22
2019-03-18T12:45:46.790Z,100501.90
2019-03-18T12:48:18.577Z,100497.96
2019-03-18T12:50:55.802Z,100505.59
2019-03-18T12:53:22.187Z,100501.02
2019-03-18T12:55:53.082Z,100495.72
2019-03-18T12:58:24.658Z,100511.14
2019-03-18T13:00:55.190Z,100494.47
2019-03-18T13:03:25.745Z,100504.58
2019-03-18T13:05:57.871Z,100496.80
2019-03-18T13:08:29.580Z,100494.30
2019-03-18T13:11:00.086Z,100499.13
2019-03-18T13:13:30.624Z,100495.28
2019-03-18T13:16:01.146Z,100500.45
2019-03-18T13:18:32.588Z,100508.70
2019-03-18T13:21:08.150Z,100509.55
2019-03-18T13:23:35.357Z,100504.27
2019-03-18T13:26:05.723Z,100515.98
2019-03-18T13:28:39.519Z,100505.92
2019-03-18T13:31:09.824Z,100502.94
2019-03-18T13:33:41.801Z,100510.98
2019-03-18T13:36:12.443Z,100508.88
2019-03-18T13:38:42.987Z,100514.44
2019-03-18T13:41:13.497Z,100523.62
2019-03-18T13:43:44.062Z,100523.82
2019-03-18T13:46:18.401Z,100525.70
2019-03-18T13:48:49.406Z,100523.69
2019-03-18T13:51:21.102Z,100528.63
2019-03-18T13:53:51.765Z,100528.63
2019-03-18T13:56:23.124Z,100526.41
2019-03-18T13:58:53.680Z,100530.44
2019-03-18T14:01:24.193Z,100530.35
2019-03-18T14:03:55.979Z,100532.80
2019-03-18T14:06:26.487Z,100535.69
2019-03-18T14:08:59.136Z,100533.47
2019-03-18T14:11:37.223Z,100543.28
2019-03-18T14:14:09.469Z,100537.66
2019-03-18T14:16:44.260Z,100542.16
2019-03-18T14:19:17.546Z,100546.21
2019-03-18T14:21:48.177Z,100535.78
2019-03-18T14:24:24.339Z,100531.11
2019-03-18T14:26:57.264Z,100546.20
2019-03-18T14:30:01.733Z,100552.59
2019-03-18T14:32:37.632Z,100541.00
2019-03-18T14:35:11.931Z,100541.73
2019-03-18T14:37:47.363Z,100530.61
2019-03-18T14:40:23.656Z,100540.02
2019-03-18T14:42:54.131Z,100539.18
2019-03-18T14:45:28.506Z,100541.02
2019-03-18T14:48:03.367Z,100546.21
2019-03-18T14:50:40.170Z,100540.36
2019-03-18T14:53:12.679Z,100544.41
2019-03-18T14:55:43.112Z,100548.20
2019-03-18T14:58:13.548Z,100541.77
2019-03-18T15:00:44.061Z,100539.88
2019-03-18T15:03:21.016Z,100540.75
2019-03-18T15:05:52.519Z,100536.03
2019-03-18T15:08:23.246Z,100537.43
2019-03-18T15:10:54.820Z,100537.66
2019-03-18T15:13:31.230Z,100539.55
2019-03-18T15:16:08.549Z,100533.22
2019-03-18T15:18:43.284Z,100527.80
2019-03-18T15:21:27.087Z,100534.11
2019-03-18T15:23:59.404Z,100533.69
2019-03-18T15:26:30.855Z,100540.80
2019-03-18T15:29:01.422Z,100546.98
2019-03-18T15:31:32.940Z,100544.41
2019-03-18T15:34:03.369Z,100546.41
2019-03-18T15:36:33.865Z,100549.70
2019-03-18T15:39:05.919Z,100554.98
2019-03-18T15:41:36.689Z,100549.00
2019-03-18T15:44:08.225Z,100552.95
2019-03-18T15:46:41.820Z,100557.77
2019-03-18T15:49:30.216Z,100559.09
2019-03-18T15:52:11.000Z,100558.32
2019-03-18T15:54:34.310Z,100557.84
2019-03-18T15:57:05.748Z,100557.98
2019-03-18T15:59:56.502Z,100556.59
2019-03-18T16:02:36.736Z,100567.19
2019-03-18T16:05:09.126Z,100558.61
2019-03-18T16:07:42.541Z,100559.97
2019-03-18T16:10:14.814Z,100568.50
2019-03-18T16:12:45.228Z,100577.42
2019-03-18T16:15:20.902Z,100581.22
2019-03-18T16:17:52.901Z,100574.68
2019-03-18T16:20:24.808Z,100579.47
2019-03-18T16:22:55.304Z,100592.19
2019-03-18T16:25:25.879Z,100586.42
2019-03-18T16:27:56.500Z,100593.14
2019-03-18T16:30:28.819Z,100599.73
2019-03-18T16:32:59.347Z,100605.38
2019-03-18T16:35:30.145Z,100602.73
2019-03-18T16:38:01.613Z,100601.25
2019-03-18T16:40:36.227Z,100595.08
2019-03-18T16:43:09.216Z,100610.17
2019-03-18T16:45:39.608Z,100608.98
2019-03-18T16:48:11.082Z,100614.67
2019-03-18T16:50:43.307Z,100617.66
2019-03-18T16:53:13.780Z,100628.28
2019-03-18T16:55:44.189Z,100639.66
2019-03-18T16:58:14.508Z,100642.66
2019-03-18T17:00:45.623Z,100644.31
2019-03-18T17:03:18.036Z,100649.78
2019-03-18T17:05:57.468Z,100652.91
2019-03-18T17:08:28.534Z,100645.50
2019-03-18T17:10:59.043Z,100649.94
2019-03-18T17:13:30.463Z,100652.23
2019-03-18T17:16:01.922Z,100650.69
2019-03-18T17:18:32.845Z,100652.34
2019-03-18T17:21:05.011Z,100653.07
2019-03-18T17:23:35.364Z,100659.93
2019-03-18T17:26:05.889Z,100665.86
2019-03-18T17:28:36.428Z,100669.73
2019-03-18T17:31:07.028Z,100663.70
2019-03-18T17:33:39.069Z,100685.44
2019-03-18T17:36:11.479Z,100688.93
2019-03-18T17:38:41.927Z,100694.67
2019-03-18T17:41:16.084Z,100699.77
2019-03-18T17:43:47.577Z,100700.59
2019-03-18T17:46:19.945Z,100707.52
2019-03-18T17:48:51.811Z,100706.52
2019-03-18T17:51:23.991Z,100711.60
2019-03-18T17:53:54.489Z,100717.21
2019-03-18T17:56:30.231Z,100723.38
2019-03-18T17:58:56.934Z,100712.61
2019-03-18T18:01:27.424Z,100711.85
2019-03-18T18:03:59.860Z,100719.52
2019-03-18T18:06:30.831Z,100729.56
2019-03-18T18:09:01.432Z,100742.46
2019-03-18T18:11:33.551Z,100746.71
2019-03-18T18:14:04.095Z,100739.77
2019-03-18T18:16:38.110Z,100735.56
2019-03-18T18:19:22.439Z,100742.30
2019-03-18T18:21:53.751Z,100738.47
2019-03-18T18:24:25.342Z,100741.64
2019-03-18T18:27:03.271Z,100741.72
2019-03-18T18:29:35.714Z,100745.03
2019-03-18T18:32:07.893Z,100740.78
2019-03-18T18:34:39.485Z,100750.09
2019-03-18T18:37:11.501Z,100751.83
2019-03-18T18:39:41.940Z,100751.78
2019-03-18T18:42:13.673Z,100752.59
2019-03-18T18:44:44.261Z,100756.56
2019-03-18T18:47:14.794Z,100755.69
2019-03-18T18:49:47.017Z,100761.08
2019-03-18T18:52:17.562Z,100764.50
2019-03-18T18:54:49.117Z,100765.23
2019-03-18T18:57:20.859Z,100768.84
2019-03-18T18:59:51.205Z,100766.55
2019-03-18T19:02:22.864Z,100769.89
2019-03-18T19:04:53.387Z,100774.53
2019-03-18T19:07:23.933Z,100777.87
2019-03-18T19:09:54.524Z,100775.16
2019-03-18T19:12:28.069Z,100780.63
2019-03-18T19:15:06.532Z,100778.63
2019-03-18T19:17:42.054Z,100781.05
2019-03-18T19:20:19.834Z,100780.97
2019-03-18T19:22:57.803Z,100787.42
2019-03-18T19:25:29.644Z,100781.67
2019-03-18T19:28:23.930Z,100781.88
2019-03-18T19:30:56.276Z,100782.78
2019-03-18T19:33:33.889Z,100795.38
2019-03-18T19:36:05.674Z,100787.61
2019-03-18T19:38:36.246Z,100794.26
2019-03-18T19:41:08.673Z,100805.30
2019-03-18T19:43:42.503Z,100812.77
2019-03-18T19:46:17.328Z,100818.44
2019-03-18T19:48:54.475Z,100816.72
2019-03-18T19:51:27.696Z,100826.53
2019-03-18T19:54:00.837Z,100836.73
2019-03-18T19:56:43.229Z,100835.41
2019-03-18T19:59:14.258Z,100835.94
2019-03-18T20:01:45.859Z,100837.21
2019-03-18T20:04:17.999Z,100847.84
2019-03-18T20:06:52.590Z,100849.45
2019-03-18T20:09:26.390Z,100852.77
2019-03-18T20:11:58.353Z,100853.71
2019-03-18T20:14:33.729Z,100860.36
2019-03-18T20:17:08.121Z,100862.29
2019-03-18T20:19:38.842Z,100867.74
2019-03-18T20:22:12.155Z,100873.91
2019-03-18T20:24:44.966Z,100880.28
2019-03-18T20:27:16.263Z,100877.33
2019-03-18T20:29:46.820Z,100886.52
2019-03-18T20:32:17.351Z,100890.78
2019-03-18T20:34:48.811Z,100885.94
2019-03-18T20:37:19.350Z,100896.95
2019-03-18T20:39:49.853Z,100891.98
2019-03-18T20:42:20.404Z,100891.40
2019-03-18T20:44:53.671Z,100889.48
2019-03-18T20:47:23.592Z,100898.27
2019-03-18T20:49:56.245Z,100893.22
2019-03-18T20:52:26.821Z,100896.75
2019-03-18T20:54:57.391Z,100902.13
2019-03-18T20:57:28.772Z,100910.92
2019-03-18T21:00:00.160Z,100911.91
2019-03-18T21:02:35.075Z,100911.61
2019-03-18T21:05:07.953Z,100913.34
2019-03-18T21:07:51.774Z,100920.73
2019-03-18T21:10:28.614Z,100926.89
2019-03-18T21:13:02.164Z,100929.92
2019-03-18T21:15:34.139Z,100929.11
2019-03-18T21:18:05.577Z,100931.53
2019-03-18T21:20:36.092Z,100930.62
2019-03-18T21:23:06.653Z,100938.09
2019-03-18T21:25:37.158Z,100942.64
2019-03-18T21:28:07.497Z,100941.14
2019-03-18T21:30:38.243Z,100950.11
2019-03-18T21:33:08.847Z,100947.06
2019-03-18T21:35:39.603Z,100950.17
2019-03-18T21:38:10.625Z,100941.50
2019-03-18T21:40:40.973Z,100944.19
2019-03-18T21:43:11.519Z,100946.42
2019-03-18T21:45:42.015Z,100949.11
2019-03-18T21:48:12.563Z,100950.81
2019-03-18T21:50:44.007Z,100947.47
2019-03-18T21:53:14.556Z,100947.66
2019-03-18T21:55:46.331Z,100964.31
2019-03-18T21:58:25.083Z,100958.34
2019-03-18T22:01:02.774Z,100964.19
2019-03-18T22:03:35.185Z,100964.25
2019-03-18T22:06:13.713Z,100971.72
2019-03-18T22:08:47.647Z,100967.06
2019-03-18T22:11:22.319Z,100978.42
2019-03-18T22:13:52.863Z,100980.10
2019-03-18T22:16:23.421Z,100982.00
2019-03-18T22:18:53.933Z,100986.08
2019-03-18T22:21:24.489Z,100984.04
2019-03-18T22:23:55.277Z,100983.08
2019-03-18T22:26:26.796Z,100983.36
2019-03-18T22:28:57.287Z,100995.66
2019-03-18T22:31:27.835Z,100989.05
2019-03-18T22:33:58.340Z,100997.15
2019-03-18T22:36:28.913Z,100996.92
2019-03-18T22:38:59.724Z,100999.95
2019-03-18T22:41:30.398Z,101002.41
2019-03-18T22:44:01.991Z,101002.80
2019-03-18T22:46:32.561Z,101004.34
2019-03-18T22:49:03.124Z,101002.61
2019-03-18T22:51:33.582Z,101005.17
2019-03-18T22:54:05.026Z,101008.55
2019-03-18T22:56:36.484Z,101012.92
2019-03-18T22:59:07.922Z,101017.17
2019-03-18T23:01:39.690Z,101018.92
2019-03-18T23:04:10.013Z,101014.88
2019-03-18T23:06:40.440Z,101016.20
2019-03-18T23:09:12.257Z,101014.84
2019-03-18T23:11:42.729Z,101016.80
2019-03-18T23:14:13.255Z,101016.73
2019-03-18T23:16:44.734Z,101013.25
2019-03-18T23:19:15.231Z,101018.13
2019-03-18T23:21:45.766Z,101028.35
2019-03-18T23:24:17.220Z,101040.28
2019-03-18T23:26:48.017Z,101040.13
2019-03-18T23:29:19.505Z,101046.63
2019-03-18T23:31:52.193Z,101055.24
2019-03-18T23:34:22.714Z,101061.42
2019-03-18T23:36:53.245Z,101063.72
2019-03-18T23:39:24.695Z,101063.38
2019-03-18T23:41:55.254Z,101064.22
2019-03-18T23:44:28.226Z,101069.77
2019-03-18T23:46:57.840Z,101074.77
2019-03-18T23:49:28.353Z,101074.77
2019-03-18T23:51:58.890Z,101070.38
2019-03-18T23:54:29.406Z,101071.68
2019-03-18T23:56:59.959Z,101068.22
2019-03-18T23:59:31.697Z,101067.15
